Time;durP1;ratioP1;P1;durP2;ratioP2;P2;SDS_P1;SDS_P2;PMS_P1;PMS_P2;Temp;Humidity;BMP_temperature;BMP_pressure;BME280_temperature;BME280_humidity;BME280_pressure;Samples;Min_cycle;Max_cycle;Signal;HPM_P1;HPM_P2
2023/07/23 00:00:24;;;;;;;0.57;0.28;;;15.60;99.90;;;;;;4977178;28;20015;-91
2023/07/23 00:02:50;;;;;;;0.75;0.17;;;15.50;99.90;;;;;;4959543;28;20504;-90
2023/07/23 00:05:15;;;;;;;0.32;0.25;;;15.50;99.90;;;;;;4959530;28;20097;-90
2023/07/23 00:07:41;;;;;;;0.40;0.20;;;15.50;99.90;;;;;;4975645;28;20432;-90
2023/07/23 00:10:09;;;;;;;1.15;0.10;;;15.50;99.90;;;;;;4976591;28;20019;-91
2023/07/23 00:12:35;;;;;;;4.07;0.60;;;15.50;99.90;;;;;;4977154;28;20033;-91
2023/07/23 00:15:01;;;;;;;0.32;0.20;;;15.50;99.90;;;;;;4977813;28;20493;-90
2023/07/23 00:17:26;;;;;;;1.55;0.30;;;15.50;99.90;;;;;;4977261;28;20057;-90
2023/07/23 00:19:52;;;;;;;0.30;0.10;;;15.50;99.90;;;;;;4960511;28;20038;-91
2023/07/23 00:22:18;;;;;;;0.47;0.10;;;15.50;99.90;;;;;;4963215;28;20042;-89
2023/07/23 00:24:45;;;;;;;0.10;0.10;;;15.50;99.90;;;;;;4979232;28;20034;-90
2023/07/23 00:27:12;;;;;;;0.15;0.10;;;15.50;99.90;;;;;;4962610;28;20051;-91
2023/07/23 00:29:38;;;;;;;0.20;0.17;;;15.40;99.90;;;;;;4961651;28;20026;-91
2023/07/23 00:32:04;;;;;;;0.93;0.20;;;15.40;99.90;;;;;;4978316;28;20022;-90
2023/07/23 00:34:30;;;;;;;0.88;0.20;;;15.40;99.90;;;;;;4977766;28;20041;-91
2023/07/23 00:36:55;;;;;;;0.10;0.10;;;15.40;99.90;;;;;;4976252;28;20476;-89
2023/07/23 00:39:21;;;;;;;0.20;0.17;;;15.40;99.90;;;;;;4958793;28;20504;-86
2023/07/23 00:41:46;;;;;;;1.88;0.25;;;15.40;99.90;;;;;;4958482;28;20061;-92
2023/07/23 00:44:12;;;;;;;1.17;0.20;;;15.40;99.90;;;;;;4975592;28;20081;-90
2023/07/23 00:46:38;;;;;;;2.85;0.20;;;15.50;99.90;;;;;;4958773;28;20023;-92
2023/07/23 00:49:03;;;;;;;0.40;0.20;;;15.50;99.90;;;;;;4975265;28;20030;-90
2023/07/23 00:51:29;;;;;;;0.35;0.30;;;15.40;99.90;;;;;;4975208;28;20481;-90
2023/07/23 00:53:55;;;;;;;0.17;0.10;;;15.50;99.90;;;;;;4975531;28;20109;-89
2023/07/23 00:56:21;;;;;;;0.22;0.13;;;15.40;99.90;;;;;;4975507;28;20114;-91
2023/07/23 00:58:47;;;;;;;1.70;0.20;;;15.50;99.90;;;;;;4978505;28;20031;-92
2023/07/23 01:01:13;;;;;;;0.10;0.10;;;15.50;99.90;;;;;;4978476;28;20139;-91
2023/07/23 01:03:39;;;;;;;0.40;0.20;;;15.40;99.90;;;;;;4975686;28;20046;-91
2023/07/23 01:06:06;;;;;;;1.23;0.20;;;15.40;99.90;;;;;;4972813;28;20158;-90
2023/07/23 01:08:34;;;;;;;1.08;0.13;;;15.40;99.90;;;;;;4961372;28;20039;-91
2023/07/23 01:11:01;;;;;;;0.70;0.10;;;15.40;99.90;;;;;;4962195;28;20031;-92
2023/07/23 01:13:28;;;;;;;0.25;0.15;;;15.50;99.90;;;;;;4976448;28;20031;-90
2023/07/23 01:15:54;;;;;;;22.05;1.52;;;15.50;99.90;;;;;;4958346;28;20027;-90
2023/07/23 01:18:20;;;;;;;0.20;0.20;;;15.40;99.90;;;;;;4959492;28;20480;-91
2023/07/23 01:20:46;;;;;;;1.63;0.20;;;15.40;99.90;;;;;;4979066;28;20025;-91
2023/07/23 01:23:11;;;;;;;0.43;0.10;;;15.50;99.90;;;;;;4961786;28;20031;-92
2023/07/23 01:25:37;;;;;;;0.10;0.10;;;15.50;99.90;;;;;;4978671;28;20035;-92
2023/07/23 01:28:03;;;;;;;5.30;1.20;;;15.50;99.90;;;;;;4961477;28;20125;-91
2023/07/23 01:30:28;;;;;;;5.97;0.88;;;15.40;99.90;;;;;;4978964;28;20110;-93
2023/07/23 01:32:55;;;;;;;0.10;0.10;;;15.50;99.90;;;;;;4961468;28;20081;-92
2023/07/23 01:35:20;;;;;;;0.10;0.10;;;15.50;99.90;;;;;;4978916;28;20027;-91
2023/07/23 01:37:47;;;;;;;0.10;0.10;;;15.50;99.90;;;;;;4979074;28;20027;-93
2023/07/23 01:40:14;;;;;;;0.20;0.20;;;15.50;99.90;;;;;;4979827;28;20457;-92
2023/07/23 01:42:42;;;;;;;0.10;0.10;;;15.50;99.90;;;;;;4968018;28;20039;-92
2023/07/23 01:45:08;;;;;;;0.77;0.10;;;15.50;99.90;;;;;;4963785;28;20023;-91
2023/07/23 01:47:34;;;;;;;0.43;0.43;;;15.50;99.90;;;;;;4981218;28;20500;-94
2023/07/23 01:50:00;;;;;;;0.10;0.10;;;15.50;99.90;;;;;;4961782;28;20473;-94
2023/07/23 01:52:26;;;;;;;0.10;0.05;;;15.50;99.90;;;;;;4961450;28;20027;-93
2023/07/23 01:54:52;;;;;;;0.30;0.10;;;15.50;99.90;;;;;;4961046;28;20034;-93
2023/07/23 01:57:17;;;;;;;1.38;0.20;;;15.50;99.90;;;;;;4961141;28;20027;-93
2023/07/23 01:59:43;;;;;;;3.00;0.10;;;15.50;99.90;;;;;;4978230;28;20034;-90
2023/07/23 02:02:09;;;;;;;0.10;0.10;;;15.50;99.90;;;;;;4978120;28;20019;-92
2023/07/23 02:04:35;;;;;;;0.40;0.20;;;15.50;99.90;;;;;;4960816;28;20799;-92
2023/07/23 02:07:02;;;;;;;0.35;0.20;;;15.50;99.90;;;;;;4961682;28;20467;-92
2023/07/23 02:09:28;;;;;;;0.25;0.20;;;15.50;99.90;;;;;;4960676;28;20027;-92
2023/07/23 02:11:54;;;;;;;0.30;0.20;;;15.50;99.90;;;;;;4960562;28;20037;-92
2023/07/23 02:14:20;;;;;;;0.38;0.28;;;15.50;99.90;;;;;;4978733;28;20025;-92
2023/07/23 02:16:45;;;;;;;0.32;0.17;;;15.50;99.90;;;;;;4960664;28;20081;-92
2023/07/23 02:19:13;;;;;;;0.30;0.17;;;15.60;99.90;;;;;;4977882;28;20381;-92
2023/07/23 02:21:38;;;;;;;3.63;0.20;;;15.50;99.90;;;;;;4960481;28;20033;-92
2023/07/23 02:24:05;;;;;;;0.13;0.13;;;15.50;99.90;;;;;;4960186;28;20137;-93
2023/07/23 02:26:31;;;;;;;0.75;0.20;;;15.60;99.90;;;;;;4960242;28;20133;-92
2023/07/23 02:28:57;;;;;;;1.48;0.20;;;15.60;99.90;;;;;;4960298;28;20078;-93
2023/07/23 02:31:22;;;;;;;0.30;0.30;;;15.60;99.90;;;;;;4959662;28;20047;-92
2023/07/23 02:33:48;;;;;;;1.27;0.20;;;15.60;99.90;;;;;;4977612;28;20031;-92
2023/07/23 02:36:14;;;;;;;0.10;0.10;;;15.60;99.90;;;;;;4977469;28;20030;-92
2023/07/23 02:38:39;;;;;;;0.98;0.20;;;15.60;99.90;;;;;;4960083;28;20027;-93
2023/07/23 02:41:06;;;;;;;0.30;0.13;;;15.50;99.90;;;;;;4977120;28;20400;-91
2023/07/23 02:43:32;;;;;;;0.10;0.10;;;15.50;99.90;;;;;;4960590;28;20035;-90
2023/07/23 02:45:57;;;;;;;0.50;0.15;;;15.60;99.90;;;;;;4977528;28;20030;-92
2023/07/23 02:48:23;;;;;;;0.10;0.10;;;15.50;99.90;;;;;;4976997;28;20504;-90
2023/07/23 02:50:52;;;;;;;0.75;0.20;;;15.50;99.90;;;;;;4959863;28;20023;-91
2023/07/23 02:53:18;;;;;;;0.17;0.10;;;15.50;99.90;;;;;;4959735;28;20026;-91
2023/07/23 02:55:44;;;;;;;0.55;0.10;;;15.50;99.90;;;;;;4976897;28;20042;-91
2023/07/23 02:58:10;;;;;;;0.13;0.08;;;15.50;99.90;;;;;;4977199;28;20035;-92
2023/07/23 03:00:39;;;;;;;0.38;0.20;;;15.50;99.90;;;;;;4959552;28;20029;-90
2023/07/23 03:03:06;;;;;;;0.20;0.10;;;15.50;99.90;;;;;;4976651;28;20049;-91
2023/07/23 03:05:33;;;;;;;0.10;0.10;;;15.50;99.90;;;;;;4976685;28;20023;-91
2023/07/23 03:07:58;;;;;;;0.20;0.20;;;15.50;99.90;;;;;;4976682;28;20033;-91
2023/07/23 03:10:24;;;;;;;0.03;0.03;;;15.50;99.90;;;;;;4976527;28;20544;-91
2023/07/23 03:12:50;;;;;;;1.65;0.10;;;15.50;99.90;;;;;;4977036;28;20050;-92
2023/07/23 03:15:15;;;;;;;0.08;0.08;;;15.50;99.90;;;;;;4980822;28;20081;-91
2023/07/23 03:17:41;;;;;;;5.47;0.25;;;15.50;99.90;;;;;;4961434;28;20113;-91
2023/07/23 03:20:10;;;;;;;0.10;0.10;;;15.50;99.90;;;;;;4976525;28;20035;-91
2023/07/23 03:22:37;;;;;;;1.50;0.40;;;15.50;99.90;;;;;;4959447;28;20034;-90
2023/07/23 03:25:03;;;;;;;1.25;0.40;;;15.50;99.90;;;;;;4976585;28;20089;-91
2023/07/23 03:27:29;;;;;;;2.78;0.50;;;15.50;99.90;;;;;;4976776;28;20047;-89
2023/07/23 03:29:54;;;;;;;1.75;0.43;;;15.60;99.90;;;;;;4976563;28;20455;-90
2023/07/23 03:32:20;;;;;;;2.85;0.52;;;15.60;99.90;;;;;;4959793;28;20476;-92
2023/07/23 03:34:46;;;;;;;1.33;0.40;;;15.50;99.90;;;;;;4982426;28;20066;-90
2023/07/23 03:37:11;;;;;;;1.77;0.52;;;15.60;99.90;;;;;;4967225;28;20030;-90
2023/07/23 03:39:37;;;;;;;4.30;0.60;;;15.60;99.90;;;;;;4965745;28;20019;-90
2023/07/23 03:42:03;;;;;;;0.60;0.60;;;15.50;99.90;;;;;;4962593;28;20058;-93
2023/07/23 03:44:29;;;;;;;3.40;0.50;;;15.50;99.90;;;;;;4977923;28;20429;-93
2023/07/23 03:47:10;;;;;;;0.88;0.60;;;15.60;99.90;;;;;;4976677;28;20018;-93
2023/07/23 03:49:36;;;;;;;1.65;0.70;;;15.50;99.90;;;;;;4976445;28;20110;-92
2023/07/23 03:52:02;;;;;;;3.50;0.75;;;15.50;99.90;;;;;;4959205;28;20507;-92
2023/07/23 03:54:28;;;;;;;1.58;0.80;;;15.50;99.90;;;;;;4976481;28;20477;-93
2023/07/23 03:56:54;;;;;;;5.28;1.10;;;15.50;99.90;;;;;;4976432;28;20027;-92
2023/07/23 03:59:20;;;;;;;1.70;0.50;;;15.50;99.90;;;;;;4959336;28;20089;-92
2023/07/23 04:01:45;;;;;;;0.60;0.60;;;15.50;99.90;;;;;;4959835;28;20034;-93
2023/07/23 04:04:11;;;;;;;0.88;0.60;;;15.50;99.90;;;;;;4976157;28;20035;-91
2023/07/23 04:06:36;;;;;;;1.05;0.63;;;15.50;99.90;;;;;;4976204;28;20019;-94
2023/07/23 04:09:02;;;;;;;1.15;0.47;;;15.60;99.90;;;;;;4958742;28;20073;-92
2023/07/23 04:11:28;;;;;;;1.42;0.70;;;15.50;99.90;;;;;;4976030;28;20031;-93
2023/07/23 04:13:53;;;;;;;0.82;0.70;;;15.50;99.90;;;;;;4958630;28;20035;-93
2023/07/23 04:16:19;;;;;;;5.53;1.17;;;15.50;99.90;;;;;;4958607;28;20034;-94
2023/07/23 04:18:49;;;;;;;1.40;0.63;;;15.50;99.90;;;;;;4975866;28;20034;-94
2023/07/23 04:21:18;;;;;;;1.52;0.75;;;15.60;99.90;;;;;;4958693;28;20026;-94
2023/07/23 04:23:48;;;;;;;0.90;0.63;;;15.50;99.90;;;;;;4975905;28;20046;-94
2023/07/23 04:26:15;;;;;;;2.60;0.70;;;15.50;99.90;;;;;;4959064;28;20053;-91
2023/07/23 04:28:41;;;;;;;0.57;0.50;;;15.60;99.90;;;;;;4976971;28;20492;-90
2023/07/23 04:31:06;;;;;;;5.05;0.90;;;15.60;99.90;;;;;;4961806;28;20041;-93
2023/07/23 04:33:32;;;;;;;1.55;0.65;;;15.50;99.90;;;;;;4993734;28;20035;-90
2023/07/23 04:35:58;;;;;;;1.55;0.73;;;15.60;99.90;;;;;;4992156;28;20035;-91
2023/07/23 04:38:23;;;;;;;0.68;0.68;;;15.60;99.90;;;;;;4977029;28;20019;-90
2023/07/23 04:40:49;;;;;;;3.72;1.05;;;15.60;99.90;;;;;;4978757;28;20038;-93
2023/07/23 04:43:15;;;;;;;3.38;1.20;;;15.60;99.90;;;;;;4975484;28;20053;-90
2023/07/23 04:45:41;;;;;;;11.15;1.63;;;15.60;99.90;;;;;;4975410;28;20034;-93
2023/07/23 04:48:07;;;;;;;1.40;0.90;;;15.60;99.90;;;;;;4975088;28;20050;-92
2023/07/23 04:50:32;;;;;;;1.75;1.15;;;15.60;99.90;;;;;;4957914;28;20105;-92
2023/07/23 04:52:58;;;;;;;0.93;0.70;;;15.60;99.90;;;;;;4974713;28;20023;-94
2023/07/23 04:55:25;;;;;;;0.85;0.60;;;15.60;99.90;;;;;;4975061;28;20480;-94
2023/07/23 04:57:51;;;;;;;2.25;0.90;;;15.60;99.90;;;;;;4975185;28;20035;-90
2023/07/23 05:00:17;;;;;;;2.38;1.10;;;15.60;99.90;;;;;;4974887;28;20126;-93
2023/07/23 05:02:43;;;;;;;3.90;1.20;;;15.60;99.90;;;;;;4974636;28;20547;-91
2023/07/23 05:05:09;;;;;;;1.20;1.10;;;15.60;99.90;;;;;;4975757;28;20026;-91
2023/07/23 05:07:35;;;;;;;1.17;0.90;;;15.70;99.90;;;;;;4957855;28;20034;-91
2023/07/23 05:10:00;;;;;;;4.60;1.00;;;15.70;99.90;;;;;;4975118;28;20050;-93
2023/07/23 05:12:26;;;;;;;1.75;0.88;;;15.70;99.90;;;;;;4960524;28;20026;-90
2023/07/23 05:14:54;;;;;;;1.17;1.02;;;15.70;99.90;;;;;;4958718;28;20051;-92
2023/07/23 05:17:20;;;;;;;1.60;1.08;;;15.70;99.90;;;;;;4975162;28;20019;-92
2023/07/23 05:19:45;;;;;;;2.30;1.30;;;15.70;99.90;;;;;;4961180;28;20443;-92
2023/07/23 05:22:11;;;;;;;1.75;1.00;;;15.70;99.90;;;;;;4978182;28;20038;-90
2023/07/23 05:24:36;;;;;;;1.85;1.45;;;15.70;99.90;;;;;;4957671;28;20027;-92
2023/07/23 05:27:02;;;;;;;1.35;1.15;;;15.80;99.90;;;;;;4974729;28;20089;-91
2023/07/23 05:29:28;;;;;;;1.80;1.05;;;15.80;99.90;;;;;;4974172;28;20038;-90
2023/07/23 05:31:53;;;;;;;1.00;0.90;;;15.80;99.90;;;;;;4957694;28;20458;-91
2023/07/23 05:34:20;;;;;;;1.77;1.27;;;15.80;99.90;;;;;;4974685;28;20492;-91
2023/07/23 05:36:45;;;;;;;3.45;1.30;;;15.80;99.90;;;;;;4957718;28;20034;-92
2023/07/23 05:39:11;;;;;;;2.45;1.45;;;15.80;99.90;;;;;;4974773;28;20027;-91
2023/07/23 05:41:36;;;;;;;1.65;1.25;;;15.80;99.90;;;;;;4957490;28;20591;-92
2023/07/23 05:44:02;;;;;;;1.88;1.20;;;15.80;99.90;;;;;;4974455;28;20074;-91
2023/07/23 05:46:28;;;;;;;2.75;1.90;;;15.90;99.90;;;;;;4974438;28;20105;-90
2023/07/23 05:48:53;;;;;;;3.72;1.50;;;15.90;99.90;;;;;;4974402;28;20034;-91
2023/07/23 05:51:19;;;;;;;2.17;1.42;;;15.90;99.90;;;;;;4974454;28;20058;-90
2023/07/23 05:53:45;;;;;;;1.25;1.15;;;15.90;99.90;;;;;;4974512;28;20031;-92
2023/07/23 05:56:10;;;;;;;2.03;1.48;;;16.00;99.90;;;;;;4957078;28;20034;-93
2023/07/23 05:58:36;;;;;;;5.53;1.30;;;16.00;99.90;;;;;;4974286;28;20034;-90
2023/07/23 06:01:03;;;;;;;1.40;1.13;;;16.00;99.90;;;;;;4957190;28;20058;-91
2023/07/23 06:03:28;;;;;;;1.33;1.10;;;16.00;99.90;;;;;;4973909;28;20042;-91
2023/07/23 06:05:54;;;;;;;1.40;1.00;;;16.00;99.90;;;;;;4976534;28;20078;-91
2023/07/23 06:08:20;;;;;;;0.90;0.80;;;16.00;99.90;;;;;;4978013;28;20030;-92
2023/07/23 06:10:45;;;;;;;1.15;0.80;;;16.10;99.90;;;;;;4977560;28;20025;-91
2023/07/23 06:13:11;;;;;;;1.05;0.80;;;16.10;99.90;;;;;;4977902;28;20027;-93
2023/07/23 06:15:36;;;;;;;1.60;1.30;;;16.10;99.90;;;;;;4978129;28;20023;-94
2023/07/23 06:18:02;;;;;;;1.52;0.85;;;16.10;99.90;;;;;;4978289;28;20054;-91
2023/07/23 06:20:28;;;;;;;1.73;0.80;;;16.10;99.90;;;;;;4977811;28;20023;-92
2023/07/23 06:22:54;;;;;;;0.98;0.80;;;16.10;99.90;;;;;;4977547;28;20138;-91
2023/07/23 06:25:20;;;;;;;1.02;0.70;;;16.10;99.90;;;;;;4960484;28;20078;-92
2023/07/23 06:27:46;;;;;;;1.17;0.50;;;16.10;99.90;;;;;;4977602;28;20077;-92
2023/07/23 06:30:12;;;;;;;0.40;0.30;;;16.10;99.90;;;;;;4977375;28;20058;-90
2023/07/23 06:32:37;;;;;;;1.88;0.38;;;16.10;99.90;;;;;;4960623;28;20504;-91
2023/07/23 06:35:05;;;;;;;0.30;0.30;;;16.10;99.90;;;;;;4977637;28;20058;-91
2023/07/23 06:37:30;;;;;;;3.40;0.52;;;16.10;99.90;;;;;;4961135;28;20085;-92
2023/07/23 06:39:56;;;;;;;1.85;0.50;;;16.10;99.90;;;;;;4964306;28;20106;-92
2023/07/23 06:42:22;;;;;;;2.22;0.60;;;16.10;99.90;;;;;;4985416;28;20098;-91
2023/07/23 06:44:47;;;;;;;0.55;0.40;;;16.10;99.90;;;;;;4984601;28;20572;-90
2023/07/23 06:47:14;;;;;;;1.10;0.60;;;16.10;99.90;;;;;;4983375;28;20023;-90
2023/07/23 06:49:39;;;;;;;0.90;0.30;;;16.10;99.90;;;;;;4981567;28;20122;-90
2023/07/23 06:52:05;;;;;;;1.40;0.50;;;16.10;99.90;;;;;;4962890;28;20058;-91
2023/07/23 06:54:32;;;;;;;0.50;0.40;;;16.10;99.90;;;;;;4964074;28;20031;-90
2023/07/23 06:56:58;;;;;;;0.50;0.35;;;16.10;99.90;;;;;;4980175;28;20441;-92
2023/07/23 06:59:23;;;;;;;0.40;0.40;;;16.10;99.90;;;;;;4960781;28;20023;-93
2023/07/23 07:01:50;;;;;;;0.70;0.38;;;16.10;99.90;;;;;;4977694;28;20149;-91
2023/07/23 07:04:16;;;;;;;3.00;0.32;;;16.00;99.90;;;;;;4977293;28;20514;-91
2023/07/23 07:06:42;;;;;;;0.63;0.40;;;16.10;99.90;;;;;;4960188;28;20022;-90
2023/07/23 07:09:08;;;;;;;2.40;0.40;;;16.10;99.90;;;;;;4960203;28;20403;-91
2023/07/23 07:11:34;;;;;;;1.60;0.80;;;16.10;99.90;;;;;;4960538;28;20034;-92
2023/07/23 07:13:59;;;;;;;1.50;0.32;;;16.10;99.90;;;;;;4977278;28;20447;-92
2023/07/23 07:16:25;;;;;;;2.92;0.45;;;16.10;99.90;;;;;;4959808;28;20117;-90
2023/07/23 07:18:52;;;;;;;1.77;0.50;;;16.10;99.90;;;;;;4977372;28;20046;-93
2023/07/23 07:21:18;;;;;;;0.88;0.70;;;16.10;99.90;;;;;;4960238;28;20476;-91
2023/07/23 07:23:43;;;;;;;2.92;0.60;;;16.10;99.90;;;;;;4979830;28;20043;-91
2023/07/23 07:26:09;;;;;;;4.75;0.80;;;16.10;99.90;;;;;;4962361;28;20493;-90
2023/07/23 07:28:35;;;;;;;1.55;0.47;;;16.10;99.90;;;;;;4976657;28;20035;-92
2023/07/23 07:31:01;;;;;;;3.15;0.35;;;16.10;99.90;;;;;;4959690;28;20102;-93
2023/07/23 07:33:28;;;;;;;1.23;0.63;;;16.20;99.90;;;;;;4959547;28;20117;-92
2023/07/23 07:35:57;;;;;;;1.70;0.30;;;16.20;99.90;;;;;;4976794;28;20074;-89
2023/07/23 07:38:25;;;;;;;2.28;0.17;;;16.20;99.90;;;;;;4976383;28;20031;-92
2023/07/23 07:40:51;;;;;;;0.60;0.60;;;16.20;99.90;;;;;;4959360;28;20071;-91
2023/07/23 07:43:17;;;;;;;0.70;0.60;;;16.10;99.90;;;;;;4958986;28;20388;-93
2023/07/23 07:45:50;;;;;;;1.30;0.75;;;16.10;99.90;;;;;;4977202;28;20037;-89
2023/07/23 07:48:20;;;;;;;1.98;1.05;;;16.10;99.90;;;;;;4959689;28;20109;-92
2023/07/23 07:50:48;;;;;;;1.85;0.82;;;16.10;99.90;;;;;;4976294;28;20023;-89
2023/07/23 07:53:15;;;;;;;1.35;0.90;;;16.10;99.90;;;;;;4976142;28;20091;-89
2023/07/23 07:55:42;;;;;;;2.00;0.90;;;16.10;99.90;;;;;;4958757;28;20059;-92
2023/07/23 07:58:13;;;;;;;1.10;1.00;;;16.20;99.90;;;;;;4976071;28;20023;-91
2023/07/23 08:00:39;;;;;;;;;;;16.20;99.90;;;;;;4976343;28;20019;-91
2023/07/23 08:03:05;;;;;;;1.20;1.10;;;16.20;99.90;;;;;;4976419;28;19961;-91
2023/07/23 08:05:31;;;;;;;1.65;1.50;;;16.30;99.90;;;;;;4977268;28;20019;-91
2023/07/23 08:07:58;;;;;;;3.25;1.50;;;16.30;99.90;;;;;;4982252;28;20023;-90
2023/07/23 08:10:24;;;;;;;2.30;1.50;;;16.30;99.90;;;;;;4972872;28;20042;-90
2023/07/23 08:12:52;;;;;;;2.13;1.50;;;16.30;99.90;;;;;;4964797;28;20066;-92
2023/07/23 08:15:18;;;;;;;1.70;1.50;;;16.40;99.90;;;;;;4977302;28;20026;-91
2023/07/23 08:17:43;;;;;;;2.75;1.42;;;16.40;99.90;;;;;;4958799;28;20023;-92
2023/07/23 08:20:10;;;;;;;1.35;1.25;;;16.40;99.90;;;;;;4958549;28;20050;-89
2023/07/23 08:22:36;;;;;;;1.80;1.50;;;16.30;99.90;;;;;;4975356;28;20112;-90
2023/07/23 08:25:02;;;;;;;3.20;1.30;;;16.40;99.90;;;;;;4958069;28;20481;-91
2023/07/23 08:27:30;;;;;;;2.42;1.40;;;16.30;99.90;;;;;;4957545;28;20042;-91
2023/07/23 08:29:58;;;;;;;2.92;1.75;;;16.30;99.90;;;;;;4975431;28;20534;-91
2023/07/23 08:32:24;;;;;;;1.42;1.25;;;16.30;99.90;;;;;;4975493;28;20477;-90
2023/07/23 08:34:51;;;;;;;1.42;1.33;;;16.40;99.90;;;;;;4975664;28;20077;-91
2023/07/23 08:37:16;;;;;;;1.60;1.50;;;16.40;99.90;;;;;;4975380;28;20030;-92
2023/07/23 08:39:42;;;;;;;1.70;1.60;;;16.30;99.90;;;;;;4957986;28;20392;-92
2023/07/23 08:42:47;;;;;;;2.90;1.90;;;16.40;99.90;;;;;;4960086;28;20122;-91
2023/07/23 08:45:13;;;;;;;3.17;2.22;;;16.40;99.90;;;;;;4958051;28;20078;-91
2023/07/23 08:47:39;;;;;;;2.30;1.88;;;16.40;99.90;;;;;;4958190;28;20023;-92
2023/07/23 08:50:05;;;;;;;4.50;2.38;;;16.40;99.90;;;;;;4975638;28;20484;-90
2023/07/23 08:52:32;;;;;;;2.90;2.40;;;16.40;99.90;;;;;;4975193;28;20031;-91
2023/07/23 08:54:58;;;;;;;2.72;2.45;;;16.30;99.90;;;;;;4974871;28;20080;-92
2023/07/23 08:57:24;;;;;;;3.80;2.60;;;16.30;99.90;;;;;;4975060;28;20083;-91
2023/07/23 08:59:51;;;;;;;3.00;2.53;;;16.20;99.90;;;;;;4975266;28;20027;-94
2023/07/23 09:02:21;;;;;;;3.30;2.70;;;16.30;99.90;;;;;;4975143;28;20026;-95
2023/07/23 09:04:46;;;;;;;3.67;2.63;;;16.30;99.90;;;;;;4975303;28;20015;-94
2023/07/23 09:07:15;;;;;;;2.80;2.15;;;16.30;99.90;;;;;;4975067;28;20281;-93
2023/07/23 09:09:40;;;;;;;3.15;2.30;;;16.30;99.90;;;;;;4957528;28;20054;-92
2023/07/23 09:12:06;;;;;;;3.10;2.55;;;16.40;99.90;;;;;;4958630;28;20074;-93
2023/07/23 09:14:40;;;;;;;4.15;2.70;;;16.40;99.90;;;;;;4982086;28;20488;-92
2023/07/23 09:17:18;;;;;;;2.92;2.28;;;16.50;99.90;;;;;;4975083;28;20587;-92
2023/07/23 09:19:44;;;;;;;2.92;2.45;;;16.50;99.90;;;;;;4974975;28;20030;-92
2023/07/23 09:22:10;;;;;;;4.18;2.50;;;16.60;99.90;;;;;;4974945;28;20381;-92
2023/07/23 09:24:36;;;;;;;2.35;1.83;;;16.60;99.90;;;;;;4974543;28;20038;-92
2023/07/23 09:27:02;;;;;;;2.10;1.80;;;16.70;99.90;;;;;;4957406;28;20097;-91
2023/07/23 09:29:41;;;;;;;1.50;1.40;;;16.70;99.90;;;;;;4959982;28;20035;-91
2023/07/23 09:32:25;;;;;;;1.80;1.58;;;16.80;99.90;;;;;;4961459;28;20062;-91
2023/07/23 09:34:52;;;;;;;1.80;1.60;;;16.80;99.90;;;;;;4957549;28;20118;-89
2023/07/23 09:37:18;;;;;;;2.58;2.20;;;16.80;99.90;;;;;;4959707;28;20027;-90
2023/07/23 09:39:43;;;;;;;3.90;3.03;;;16.80;99.90;;;;;;4976588;28;20370;-90
2023/07/23 09:42:11;;;;;;;3.58;2.90;;;16.80;99.90;;;;;;4961735;28;20050;-89
2023/07/23 09:44:41;;;;;;;3.42;3.13;;;16.80;99.90;;;;;;4978368;28;20038;-92
2023/07/23 09:47:07;;;;;;;;;;;16.80;99.90;;;;;;4978976;28;20522;-91
2023/07/23 09:49:33;;;;;;;2.42;2.22;;;16.70;99.90;;;;;;4961883;28;19905;-92
2023/07/23 09:52:06;;;;;;;2.88;2.67;;;16.70;99.90;;;;;;4979842;28;20035;-92
2023/07/23 09:54:34;;;;;;;2.47;2.28;;;16.80;99.90;;;;;;4979743;28;20030;-91
2023/07/23 09:57:00;;;;;;;2.53;2.25;;;16.80;99.90;;;;;;4979853;28;20026;-91
2023/07/23 09:59:26;;;;;;;1.80;1.70;;;16.80;99.90;;;;;;4962678;28;20527;-92
2023/07/23 10:01:53;;;;;;;2.83;1.70;;;16.80;99.90;;;;;;4961602;28;20054;-92
2023/07/23 10:04:20;;;;;;;2.22;1.83;;;16.80;99.90;;;;;;4978303;28;20129;-90
2023/07/23 10:06:48;;;;;;;1.80;1.45;;;16.80;99.90;;;;;;4978636;28;20042;-90
2023/07/23 10:09:14;;;;;;;1.20;1.10;;;16.80;99.90;;;;;;4978154;28;20058;-90
2023/07/23 10:11:40;;;;;;;1.35;1.25;;;16.70;99.90;;;;;;4978207;28;20094;-92
2023/07/23 10:14:06;;;;;;;1.38;1.27;;;16.80;99.90;;;;;;4961502;28;20069;-92
2023/07/23 10:16:42;;;;;;;1.77;1.50;;;16.80;99.90;;;;;;4978052;28;20031;-91
2023/07/23 10:19:09;;;;;;;1.35;1.23;;;16.80;99.90;;;;;;4978102;28;20050;-91
2023/07/23 10:21:36;;;;;;;1.60;1.30;;;16.80;99.90;;;;;;4960800;28;20054;-91
2023/07/23 10:24:03;;;;;;;1.58;1.48;;;16.90;99.90;;;;;;4977638;28;20484;-91
2023/07/23 10:26:48;;;;;;;1.80;1.70;;;16.90;99.90;;;;;;4978465;28;20540;-90
2023/07/23 10:29:18;;;;;;;1.80;1.70;;;16.90;99.90;;;;;;4961056;28;20030;-91
2023/07/23 10:31:45;;;;;;;3.20;1.65;;;16.90;99.90;;;;;;4978149;28;20083;-91
2023/07/23 10:34:22;;;;;;;2.83;1.80;;;16.90;99.90;;;;;;4977934;28;20094;-92
2023/07/23 10:37:13;;;;;;;2.17;1.75;;;16.90;99.90;;;;;;4960644;28;20062;-92
2023/07/23 10:39:46;;;;;;;3.60;1.92;;;16.80;99.90;;;;;;4978411;28;20083;-92
2023/07/23 10:42:36;;;;;;;1.65;1.50;;;16.80;99.90;;;;;;4961666;28;20037;-93
2023/07/23 10:45:20;;;;;;;2.00;1.65;;;16.90;99.90;;;;;;4965194;28;20055;-92
2023/07/23 10:47:55;;;;;;;2.22;1.52;;;16.90;99.90;;;;;;4977889;28;20023;-92
2023/07/23 10:50:22;;;;;;;3.95;1.77;;;16.90;99.90;;;;;;4959983;28;20030;-93
2023/07/23 10:53:01;;;;;;;3.60;2.25;;;16.90;99.90;;;;;;4960537;28;20031;-93
2023/07/23 10:55:32;;;;;;;2.30;1.50;;;16.90;99.90;;;;;;4977624;28;20034;-93
2023/07/23 10:58:12;;;;;;;1.60;1.50;;;17.00;99.90;;;;;;4977305;28;20022;-91
2023/07/23 11:00:46;;;;;;;1.80;1.40;;;17.00;99.90;;;;;;4960065;28;20038;-92
2023/07/23 11:03:17;;;;;;;1.48;1.38;;;17.00;99.90;;;;;;4960285;28;20051;-91
2023/07/23 11:05:43;;;;;;;5.28;1.65;;;17.10;99.90;;;;;;4959844;28;20019;-92
2023/07/23 11:08:19;;;;;;;1.67;1.20;;;17.10;99.90;;;;;;4959856;28;20027;-93
2023/07/23 11:10:55;;;;;;;2.72;0.90;;;17.20;99.90;;;;;;4977234;28;20031;-93
2023/07/23 11:13:22;;;;;;;1.35;0.90;;;17.20;99.90;;;;;;4959626;28;20030;-92
2023/07/23 11:15:48;;;;;;;1.42;0.88;;;17.30;99.90;;;;;;4960842;28;20039;-95
2023/07/23 11:18:14;;;;;;;1.17;0.77;;;17.30;99.90;;;;;;4960064;28;20062;-90
2023/07/23 11:20:47;;;;;;;1.23;1.10;;;17.40;99.90;;;;;;4959714;28;20022;-90
2023/07/23 11:23:14;;;;;;;1.75;1.10;;;17.30;99.90;;;;;;4959538;28;20042;-91
2023/07/23 11:25:40;;;;;;;1.00;1.00;;;17.30;99.90;;;;;;4959796;28;20034;-90
2023/07/23 11:28:09;;;;;;;0.95;0.95;;;17.30;99.90;;;;;;4976920;28;20038;-91
2023/07/23 11:30:35;;;;;;;1.70;1.20;;;17.30;99.90;;;;;;4978001;28;20500;-92
2023/07/23 11:33:02;;;;;;;2.63;1.33;;;17.30;99.90;;;;;;4962509;28;20027;-91
2023/07/23 11:35:28;;;;;;;1.27;1.13;;;17.30;99.90;;;;;;4983316;28;20030;-91
2023/07/23 11:37:54;;;;;;;2.33;1.10;;;17.40;99.90;;;;;;4959530;28;20022;-90
2023/07/23 11:40:21;;;;;;;1.20;0.90;;;17.40;99.90;;;;;;4962268;28;20023;-91
2023/07/23 11:42:47;;;;;;;0.80;0.80;;;17.50;99.90;;;;;;4969698;28;20045;-90
2023/07/23 11:45:13;;;;;;;1.27;0.82;;;17.50;99.90;;;;;;4989607;28;20098;-93
2023/07/23 11:47:51;;;;;;;1.42;0.82;;;17.50;99.90;;;;;;4959947;28;20023;-92
2023/07/23 11:50:18;;;;;;;1.90;0.70;;;17.60;99.90;;;;;;4976627;28;20026;-90
2023/07/23 11:52:46;;;;;;;0.80;0.80;;;17.60;99.90;;;;;;4959113;28;20031;-90
2023/07/23 11:55:27;;;;;;;0.60;0.55;;;17.60;99.90;;;;;;4958892;28;20050;-90
2023/07/23 11:58:00;;;;;;;0.90;0.90;;;17.60;99.90;;;;;;4976242;28;20050;-91
2023/07/23 12:00:37;;;;;;;1.13;1.02;;;17.70;99.90;;;;;;4958516;28;20031;-90
2023/07/23 12:03:07;;;;;;;1.63;1.15;;;17.70;99.90;;;;;;4974738;28;20027;-90
2023/07/23 12:05:33;;;;;;;0.90;0.90;;;17.70;99.90;;;;;;4975950;28;20058;-89
2023/07/23 12:07:58;;;;;;;1.63;1.33;;;17.80;99.90;;;;;;4960884;28;20042;-90
2023/07/23 12:10:27;;;;;;;1.73;1.30;;;17.90;99.90;;;;;;4974182;28;20030;-89
2023/07/23 12:12:53;;;;;;;0.93;0.93;;;17.90;99.90;;;;;;4992999;28;20113;-90
2023/07/23 12:15:19;;;;;;;2.25;1.17;;;18.00;99.90;;;;;;4977216;28;20035;-90
2023/07/23 12:17:45;;;;;;;1.50;1.40;;;18.00;99.90;;;;;;4975997;28;20114;-91
2023/07/23 12:20:16;;;;;;;1.63;1.52;;;18.10;99.90;;;;;;4975485;28;20022;-91
2023/07/23 12:22:52;;;;;;;1.80;1.70;;;18.20;99.90;;;;;;4975603;28;20031;-93
2023/07/23 12:25:19;;;;;;;2.25;2.10;;;18.30;99.90;;;;;;4975629;28;20142;-92
2023/07/23 12:27:45;;;;;;;1.67;1.58;;;18.40;99.90;;;;;;4958292;28;20138;-91
2023/07/23 12:30:11;;;;;;;1.65;1.55;;;18.40;99.90;;;;;;4958006;28;20034;-91
2023/07/23 12:32:37;;;;;;;4.45;1.70;;;18.40;99.90;;;;;;4957913;28;20213;-92
2023/07/23 12:35:03;;;;;;;3.50;1.83;;;18.40;99.90;;;;;;4975361;28;20038;-91
2023/07/23 12:37:31;;;;;;;2.58;2.25;;;18.40;99.90;;;;;;4975550;28;20027;-92
2023/07/23 12:39:57;;;;;;;2.90;1.70;;;18.50;99.90;;;;;;4975643;28;20109;-92
2023/07/23 12:42:23;;;;;;;2.13;1.90;;;18.70;99.90;;;;;;4975493;28;20109;-91
2023/07/23 12:44:49;;;;;;;1.58;1.48;;;18.80;99.90;;;;;;4975343;28;20029;-91
2023/07/23 12:47:15;;;;;;;1.50;1.40;;;18.80;99.90;;;;;;4975170;28;20019;-91